sensor_id;sensor_type;location;lat;lon;timestamp;P1;durP1;ratioP1;P2;durP2;ratioP2
57309;SDS011;43153;50.984;18.204;2022-07-06T00:02:43;23.20;;;9.80;;
57309;SDS011;43153;50.984;18.204;2022-07-06T00:05:28;19.00;;;9.80;;
57309;SDS011;43153;50.984;18.204;2022-07-06T00:08:12;19.20;;;9.50;;
57309;SDS011;43153;50.984;18.204;2022-07-06T00:10:57;19.10;;;9.20;;
57309;SDS011;43153;50.984;18.204;2022-07-06T00:13:42;19.30;;;10.30;;
57309;SDS011;43153;50.984;18.204;2022-07-06T00:16:26;14.60;;;8.70;;
57309;SDS011;43153;50.984;18.204;2022-07-06T00:19:10;15.80;;;9.00;;
57309;SDS011;43153;50.984;18.204;2022-07-06T00:21:54;20.20;;;8.90;;
57309;SDS011;43153;50.984;18.204;2022-07-06T00:24:39;13.70;;;8.20;;
57309;SDS011;43153;50.984;18.204;2022-07-06T00:27:24;20.50;;;8.80;;
57309;SDS011;43153;50.984;18.204;2022-07-06T00:30:08;19.60;;;9.70;;
57309;SDS011;43153;50.984;18.204;2022-07-06T00:32:54;19.70;;;9.00;;
57309;SDS011;43153;50.984;18.204;2022-07-06T00:35:38;21.20;;;9.30;;
57309;SDS011;43153;50.984;18.204;2022-07-06T00:38:23;33.30;;;11.00;;
57309;SDS011;43153;50.984;18.204;2022-07-06T00:41:09;15.60;;;9.30;;
57309;SDS011;43153;50.984;18.204;2022-07-06T00:43:54;20.50;;;8.40;;
57309;SDS011;43153;50.984;18.204;2022-07-06T00:46:41;17.90;;;8.10;;
57309;SDS011;43153;50.984;18.204;2022-07-06T00:49:26;14.60;;;7.30;;
57309;SDS011;43153;50.984;18.204;2022-07-06T00:52:29;15.20;;;8.00;;
57309;SDS011;43153;50.984;18.204;2022-07-06T00:55:14;15.20;;;7.20;;
57309;SDS011;43153;50.984;18.204;2022-07-06T00:58:00;23.30;;;8.80;;
57309;SDS011;43153;50.984;18.204;2022-07-06T01:00:45;16.00;;;8.50;;
57309;SDS011;43153;50.984;18.204;2022-07-06T01:03:29;17.50;;;7.10;;
57309;SDS011;43153;50.984;18.204;2022-07-06T01:06:13;15.80;;;8.40;;
57309;SDS011;43153;50.984;18.204;2022-07-06T01:08:58;13.30;;;7.70;;
57309;SDS011;43153;50.984;18.204;2022-07-06T01:11:47;15.90;;;7.10;;
57309;SDS011;43153;50.984;18.204;2022-07-06T01:14:32;14.90;;;7.10;;
57309;SDS011;43153;50.984;18.204;2022-07-06T01:17:17;12.50;;;6.10;;
57309;SDS011;43153;50.984;18.204;2022-07-06T01:20:16;13.00;;;5.80;;
57309;SDS011;43153;50.984;18.204;2022-07-06T01:23:00;13.50;;;5.00;;
57309;SDS011;43153;50.984;18.204;2022-07-06T01:25:45;12.10;;;5.30;;
57309;SDS011;43153;50.984;18.204;2022-07-06T01:28:29;9.80;;;5.00;;
57309;SDS011;43153;50.984;18.204;2022-07-06T01:31:23;16.50;;;6.30;;
57309;SDS011;43153;50.984;18.204;2022-07-06T01:34:07;11.40;;;5.50;;
57309;SDS011;43153;50.984;18.204;2022-07-06T01:36:56;10.10;;;5.00;;
57309;SDS011;43153;50.984;18.204;2022-07-06T01:39:42;14.10;;;5.60;;
57309;SDS011;43153;50.984;18.204;2022-07-06T01:42:28;14.10;;;5.30;;
57309;SDS011;43153;50.984;18.204;2022-07-06T01:45:13;15.80;;;6.80;;
57309;SDS011;43153;50.984;18.204;2022-07-06T01:47:58;14.70;;;5.40;;
57309;SDS011;43153;50.984;18.204;2022-07-06T01:50:42;8.90;;;4.50;;
57309;SDS011;43153;50.984;18.204;2022-07-06T01:53:27;11.30;;;5.80;;
57309;SDS011;43153;50.984;18.204;2022-07-06T01:56:12;10.40;;;6.30;;
57309;SDS011;43153;50.984;18.204;2022-07-06T01:58:57;10.30;;;5.70;;
57309;SDS011;43153;50.984;18.204;2022-07-06T02:01:41;13.00;;;6.10;;
57309;SDS011;43153;50.984;18.204;2022-07-06T02:04:25;9.80;;;6.70;;
57309;SDS011;43153;50.984;18.204;2022-07-06T02:07:09;10.20;;;5.00;;
57309;SDS011;43153;50.984;18.204;2022-07-06T02:09:54;15.60;;;7.10;;
57309;SDS011;43153;50.984;18.204;2022-07-06T02:12:38;12.00;;;6.60;;
57309;SDS011;43153;50.984;18.204;2022-07-06T02:15:22;11.80;;;6.80;;
57309;SDS011;43153;50.984;18.204;2022-07-06T02:18:08;13.00;;;6.70;;
57309;SDS011;43153;50.984;18.204;2022-07-06T02:20:53;9.40;;;6.70;;
57309;SDS011;43153;50.984;18.204;2022-07-06T02:23:39;12.00;;;6.50;;
57309;SDS011;43153;50.984;18.204;2022-07-06T02:26:23;13.50;;;7.80;;
57309;SDS011;43153;50.984;18.204;2022-07-06T02:29:08;14.60;;;7.70;;
57309;SDS011;43153;50.984;18.204;2022-07-06T02:31:52;14.50;;;8.80;;
57309;SDS011;43153;50.984;18.204;2022-07-06T02:34:36;23.10;;;12.10;;
57309;SDS011;43153;50.984;18.204;2022-07-06T02:37:21;25.00;;;14.70;;
57309;SDS011;43153;50.984;18.204;2022-07-06T02:40:05;23.90;;;14.70;;
57309;SDS011;43153;50.984;18.204;2022-07-06T02:42:50;25.00;;;14.30;;
57309;SDS011;43153;50.984;18.204;2022-07-06T02:45:34;29.50;;;16.70;;
57309;SDS011;43153;50.984;18.204;2022-07-06T02:48:19;28.60;;;15.90;;
57309;SDS011;43153;50.984;18.204;2022-07-06T02:51:06;33.70;;;17.80;;
57309;SDS011;43153;50.984;18.204;2022-07-06T02:53:50;32.80;;;16.60;;
57309;SDS011;43153;50.984;18.204;2022-07-06T02:56:34;28.10;;;13.60;;
57309;SDS011;43153;50.984;18.204;2022-07-06T02:59:20;25.40;;;13.50;;
57309;SDS011;43153;50.984;18.204;2022-07-06T03:02:04;17.80;;;8.70;;
57309;SDS011;43153;50.984;18.204;2022-07-06T03:04:49;13.60;;;7.50;;
57309;SDS011;43153;50.984;18.204;2022-07-06T03:07:34;14.40;;;7.10;;
57309;SDS011;43153;50.984;18.204;2022-07-06T03:10:18;10.70;;;6.00;;
57309;SDS011;43153;50.984;18.204;2022-07-06T03:13:03;8.00;;;4.70;;
57309;SDS011;43153;50.984;18.204;2022-07-06T03:15:48;9.60;;;4.50;;
57309;SDS011;43153;50.984;18.204;2022-07-06T03:18:32;11.20;;;5.70;;
57309;SDS011;43153;50.984;18.204;2022-07-06T03:21:16;12.30;;;5.50;;
57309;SDS011;43153;50.984;18.204;2022-07-06T03:24:00;11.40;;;5.10;;
57309;SDS011;43153;50.984;18.204;2022-07-06T03:26:46;9.70;;;5.60;;
57309;SDS011;43153;50.984;18.204;2022-07-06T03:29:31;18.60;;;8.60;;
57309;SDS011;43153;50.984;18.204;2022-07-06T03:32:22;15.30;;;6.70;;
57309;SDS011;43153;50.984;18.204;2022-07-06T03:35:07;15.50;;;7.40;;
57309;SDS011;43153;50.984;18.204;2022-07-06T03:37:52;19.70;;;11.00;;
57309;SDS011;43153;50.984;18.204;2022-07-06T03:40:36;21.90;;;11.70;;
57309;SDS011;43153;50.984;18.204;2022-07-06T03:43:20;19.30;;;10.20;;
57309;SDS011;43153;50.984;18.204;2022-07-06T03:46:05;9.60;;;6.00;;
57309;SDS011;43153;50.984;18.204;2022-07-06T03:48:49;13.90;;;6.70;;
57309;SDS011;43153;50.984;18.204;2022-07-06T03:51:33;11.50;;;6.80;;
57309;SDS011;43153;50.984;18.204;2022-07-06T03:54:17;12.80;;;6.90;;
57309;SDS011;43153;50.984;18.204;2022-07-06T03:57:01;15.80;;;8.30;;
57309;SDS011;43153;50.984;18.204;2022-07-06T03:59:49;14.50;;;7.40;;
57309;SDS011;43153;50.984;18.204;2022-07-06T04:02:35;13.50;;;6.50;;
57309;SDS011;43153;50.984;18.204;2022-07-06T04:05:20;14.30;;;6.40;;
57309;SDS011;43153;50.984;18.204;2022-07-06T04:08:06;11.10;;;6.10;;
57309;SDS011;43153;50.984;18.204;2022-07-06T04:10:50;10.60;;;6.10;;
57309;SDS011;43153;50.984;18.204;2022-07-06T04:13:35;11.70;;;6.60;;
57309;SDS011;43153;50.984;18.204;2022-07-06T04:16:19;11.70;;;6.20;;
57309;SDS011;43153;50.984;18.204;2022-07-06T04:19:04;12.60;;;6.30;;
57309;SDS011;43153;50.984;18.204;2022-07-06T04:21:48;14.40;;;6.10;;
57309;SDS011;43153;50.984;18.204;2022-07-06T04:24:32;13.10;;;6.40;;
57309;SDS011;43153;50.984;18.204;2022-07-06T04:27:16;14.20;;;6.70;;
57309;SDS011;43153;50.984;18.204;2022-07-06T04:30:07;11.00;;;6.50;;
57309;SDS011;43153;50.984;18.204;2022-07-06T04:32:52;13.10;;;6.60;;
57309;SDS011;43153;50.984;18.204;2022-07-06T04:35:37;12.80;;;6.20;;
57309;SDS011;43153;50.984;18.204;2022-07-06T04:38:22;16.60;;;6.30;;
57309;SDS011;43153;50.984;18.204;2022-07-06T04:41:08;17.10;;;6.20;;
57309;SDS011;43153;50.984;18.204;2022-07-06T04:43:53;14.60;;;7.00;;
57309;SDS011;43153;50.984;18.204;2022-07-06T04:46:37;16.00;;;6.70;;
57309;SDS011;43153;50.984;18.204;2022-07-06T04:49:22;15.00;;;5.90;;
57309;SDS011;43153;50.984;18.204;2022-07-06T04:52:07;15.60;;;6.00;;
57309;SDS011;43153;50.984;18.204;2022-07-06T04:54:55;12.60;;;6.40;;
57309;SDS011;43153;50.984;18.204;2022-07-06T04:57:39;18.50;;;6.60;;
57309;SDS011;43153;50.984;18.204;2022-07-06T05:00:23;18.20;;;6.80;;
57309;SDS011;43153;50.984;18.204;2022-07-06T05:03:08;18.80;;;7.40;;
57309;SDS011;43153;50.984;18.204;2022-07-06T05:05:52;12.40;;;6.60;;
57309;SDS011;43153;50.984;18.204;2022-07-06T05:08:37;16.20;;;6.60;;
57309;SDS011;43153;50.984;18.204;2022-07-06T05:11:22;14.70;;;6.00;;
57309;SDS011;43153;50.984;18.204;2022-07-06T05:14:06;19.80;;;7.00;;
57309;SDS011;43153;50.984;18.204;2022-07-06T05:16:51;14.20;;;6.90;;
57309;SDS011;43153;50.984;18.204;2022-07-06T05:19:36;15.90;;;6.40;;
57309;SDS011;43153;50.984;18.204;2022-07-06T05:22:20;11.80;;;6.80;;
57309;SDS011;43153;50.984;18.204;2022-07-06T05:25:04;11.90;;;6.80;;
57309;SDS011;43153;50.984;18.204;2022-07-06T05:27:49;16.50;;;7.30;;
57309;SDS011;43153;50.984;18.204;2022-07-06T05:30:33;17.30;;;8.20;;
57309;SDS011;43153;50.984;18.204;2022-07-06T05:33:19;11.40;;;7.40;;
57309;SDS011;43153;50.984;18.204;2022-07-06T05:36:03;13.70;;;8.30;;
57309;SDS011;43153;50.984;18.204;2022-07-06T05:38:48;12.50;;;6.70;;
57309;SDS011;43153;50.984;18.204;2022-07-06T05:41:33;13.30;;;8.00;;
57309;SDS011;43153;50.984;18.204;2022-07-06T05:44:19;13.80;;;7.40;;
57309;SDS011;43153;50.984;18.204;2022-07-06T05:47:04;13.30;;;7.90;;
57309;SDS011;43153;50.984;18.204;2022-07-06T05:50:20;12.70;;;7.20;;
57309;SDS011;43153;50.984;18.204;2022-07-06T05:53:06;18.80;;;8.00;;
57309;SDS011;43153;50.984;18.204;2022-07-06T05:55:50;13.10;;;7.10;;
57309;SDS011;43153;50.984;18.204;2022-07-06T05:58:34;13.80;;;7.50;;
57309;SDS011;43153;50.984;18.204;2022-07-06T06:01:19;15.90;;;7.90;;
57309;SDS011;43153;50.984;18.204;2022-07-06T06:04:05;18.40;;;7.70;;
57309;SDS011;43153;50.984;18.204;2022-07-06T06:06:49;15.70;;;8.40;;
57309;SDS011;43153;50.984;18.204;2022-07-06T06:09:33;17.10;;;8.80;;
57309;SDS011;43153;50.984;18.204;2022-07-06T06:12:18;15.40;;;8.70;;
57309;SDS011;43153;50.984;18.204;2022-07-06T06:15:04;22.40;;;8.80;;
57309;SDS011;43153;50.984;18.204;2022-07-06T06:17:48;14.40;;;8.40;;
57309;SDS011;43153;50.984;18.204;2022-07-06T06:20:33;20.70;;;8.40;;
57309;SDS011;43153;50.984;18.204;2022-07-06T06:23:19;15.50;;;8.20;;
57309;SDS011;43153;50.984;18.204;2022-07-06T06:26:03;16.60;;;7.70;;
57309;SDS011;43153;50.984;18.204;2022-07-06T06:28:47;23.10;;;7.60;;
57309;SDS011;43153;50.984;18.204;2022-07-06T06:31:33;12.50;;;5.50;;
57309;SDS011;43153;50.984;18.204;2022-07-06T06:34:17;12.50;;;5.60;;
57309;SDS011;43153;50.984;18.204;2022-07-06T06:37:01;9.90;;;5.20;;
57309;SDS011;43153;50.984;18.204;2022-07-06T06:39:46;11.80;;;4.40;;
57309;SDS011;43153;50.984;18.204;2022-07-06T06:42:30;13.00;;;4.20;;
57309;SDS011;43153;50.984;18.204;2022-07-06T06:45:14;13.80;;;3.80;;
57309;SDS011;43153;50.984;18.204;2022-07-06T06:47:58;9.80;;;4.30;;
57309;SDS011;43153;50.984;18.204;2022-07-06T06:50:43;7.60;;;3.10;;
57309;SDS011;43153;50.984;18.204;2022-07-06T06:53:29;14.80;;;2.90;;
57309;SDS011;43153;50.984;18.204;2022-07-06T06:56:15;12.70;;;3.20;;
57309;SDS011;43153;50.984;18.204;2022-07-06T06:58:59;8.60;;;3.10;;
57309;SDS011;43153;50.984;18.204;2022-07-06T07:01:45;10.80;;;2.70;;
57309;SDS011;43153;50.984;18.204;2022-07-06T07:04:29;10.50;;;2.60;;
57309;SDS011;43153;50.984;18.204;2022-07-06T07:07:14;12.60;;;3.70;;
57309;SDS011;43153;50.984;18.204;2022-07-06T07:09:59;8.80;;;2.30;;
57309;SDS011;43153;50.984;18.204;2022-07-06T07:12:47;8.50;;;2.30;;
57309;SDS011;43153;50.984;18.204;2022-07-06T07:15:32;8.30;;;2.90;;
57309;SDS011;43153;50.984;18.204;2022-07-06T07:18:17;8.10;;;2.50;;
57309;SDS011;43153;50.984;18.204;2022-07-06T07:21:01;6.70;;;2.50;;
57309;SDS011;43153;50.984;18.204;2022-07-06T07:23:46;11.60;;;2.80;;
57309;SDS011;43153;50.984;18.204;2022-07-06T07:26:31;9.90;;;3.80;;
57309;SDS011;43153;50.984;18.204;2022-07-06T07:29:15;14.20;;;2.70;;
57309;SDS011;43153;50.984;18.204;2022-07-06T07:32:00;9.50;;;3.40;;
57309;SDS011;43153;50.984;18.204;2022-07-06T07:34:45;11.10;;;2.90;;
57309;SDS011;43153;50.984;18.204;2022-07-06T07:37:30;21.50;;;4.80;;
57309;SDS011;43153;50.984;18.204;2022-07-06T07:40:15;12.50;;;3.50;;
57309;SDS011;43153;50.984;18.204;2022-07-06T07:43:01;12.60;;;4.20;;
57309;SDS011;43153;50.984;18.204;2022-07-06T07:45:45;26.60;;;4.80;;
57309;SDS011;43153;50.984;18.204;2022-07-06T07:48:30;16.40;;;8.90;;
57309;SDS011;43153;50.984;18.204;2022-07-06T07:51:14;17.30;;;8.60;;
57309;SDS011;43153;50.984;18.204;2022-07-06T07:54:01;17.50;;;9.30;;
57309;SDS011;43153;50.984;18.204;2022-07-06T07:56:47;17.40;;;10.10;;
57309;SDS011;43153;50.984;18.204;2022-07-06T07:59:36;15.80;;;9.90;;
57309;SDS011;43153;50.984;18.204;2022-07-06T08:02:21;17.50;;;11.20;;
57309;SDS011;43153;50.984;18.204;2022-07-06T08:05:05;16.70;;;10.70;;
57309;SDS011;43153;50.984;18.204;2022-07-06T08:07:50;21.20;;;12.60;;
57309;SDS011;43153;50.984;18.204;2022-07-06T08:10:34;19.60;;;11.70;;
57309;SDS011;43153;50.984;18.204;2022-07-06T08:13:18;16.40;;;12.40;;
57309;SDS011;43153;50.984;18.204;2022-07-06T08:16:03;18.20;;;12.80;;
57309;SDS011;43153;50.984;18.204;2022-07-06T08:18:48;21.20;;;12.80;;
57309;SDS011;43153;50.984;18.204;2022-07-06T08:21:32;18.80;;;13.70;;
57309;SDS011;43153;50.984;18.204;2022-07-06T08:24:16;17.30;;;13.10;;
57309;SDS011;43153;50.984;18.204;2022-07-06T08:27:01;17.20;;;12.90;;
57309;SDS011;43153;50.984;18.204;2022-07-06T08:29:46;17.70;;;11.70;;
57309;SDS011;43153;50.984;18.204;2022-07-06T08:32:30;21.20;;;11.70;;
57309;SDS011;43153;50.984;18.204;2022-07-06T08:35:15;15.30;;;10.30;;
57309;SDS011;43153;50.984;18.204;2022-07-06T08:37:59;18.10;;;9.70;;
57309;SDS011;43153;50.984;18.204;2022-07-06T08:40:45;18.50;;;11.00;;
57309;SDS011;43153;50.984;18.204;2022-07-06T08:43:29;18.70;;;10.40;;
57309;SDS011;43153;50.984;18.204;2022-07-06T08:46:14;21.60;;;10.00;;
57309;SDS011;43153;50.984;18.204;2022-07-06T08:48:58;19.30;;;12.00;;
57309;SDS011;43153;50.984;18.204;2022-07-06T08:51:46;51.60;;;15.80;;
57309;SDS011;43153;50.984;18.204;2022-07-06T08:54:32;57.80;;;13.60;;
57309;SDS011;43153;50.984;18.204;2022-07-06T08:57:16;10.30;;;6.50;;
57309;SDS011;43153;50.984;18.204;2022-07-06T09:00:01;12.20;;;7.10;;
57309;SDS011;43153;50.984;18.204;2022-07-06T09:02:46;9.70;;;6.10;;
57309;SDS011;43153;50.984;18.204;2022-07-06T09:05:34;12.30;;;6.80;;
57309;SDS011;43153;50.984;18.204;2022-07-06T09:08:20;18.80;;;7.60;;
57309;SDS011;43153;50.984;18.204;2022-07-06T09:11:05;13.00;;;5.60;;
57309;SDS011;43153;50.984;18.204;2022-07-06T09:13:51;14.00;;;5.10;;
57309;SDS011;43153;50.984;18.204;2022-07-06T09:16:35;23.20;;;7.40;;
57309;SDS011;43153;50.984;18.204;2022-07-06T09:19:19;12.10;;;3.90;;
57309;SDS011;43153;50.984;18.204;2022-07-06T09:22:06;8.00;;;2.90;;
57309;SDS011;43153;50.984;18.204;2022-07-06T09:24:50;9.10;;;2.70;;
57309;SDS011;43153;50.984;18.204;2022-07-06T09:27:38;5.70;;;1.40;;
57309;SDS011;43153;50.984;18.204;2022-07-06T09:30:24;4.30;;;1.70;;
57309;SDS011;43153;50.984;18.204;2022-07-06T09:33:12;9.90;;;2.40;;
57309;SDS011;43153;50.984;18.204;2022-07-06T09:36:01;2.90;;;1.10;;
57309;SDS011;43153;50.984;18.204;2022-07-06T09:38:46;6.50;;;1.70;;
57309;SDS011;43153;50.984;18.204;2022-07-06T09:41:33;12.70;;;2.90;;
57309;SDS011;43153;50.984;18.204;2022-07-06T09:44:22;14.40;;;2.50;;
57309;SDS011;43153;50.984;18.204;2022-07-06T09:47:08;7.60;;;2.20;;
57309;SDS011;43153;50.984;18.204;2022-07-06T09:49:55;3.50;;;1.00;;
57309;SDS011;43153;50.984;18.204;2022-07-06T09:52:40;8.40;;;1.30;;
57309;SDS011;43153;50.984;18.204;2022-07-06T09:55:25;7.40;;;1.60;;
57309;SDS011;43153;50.984;18.204;2022-07-06T09:58:09;4.20;;;1.40;;
57309;SDS011;43153;50.984;18.204;2022-07-06T10:00:56;12.70;;;2.30;;
57309;SDS011;43153;50.984;18.204;2022-07-06T10:03:41;14.70;;;2.10;;
57309;SDS011;43153;50.984;18.204;2022-07-06T10:06:25;26.80;;;4.60;;
57309;SDS011;43153;50.984;18.204;2022-07-06T10:09:11;6.70;;;1.50;;
57309;SDS011;43153;50.984;18.204;2022-07-06T10:11:56;5.10;;;1.30;;
57309;SDS011;43153;50.984;18.204;2022-07-06T10:14:41;7.50;;;1.80;;
57309;SDS011;43153;50.984;18.204;2022-07-06T10:17:26;6.10;;;1.50;;
57309;SDS011;43153;50.984;18.204;2022-07-06T10:20:11;7.90;;;1.70;;
57309;SDS011;43153;50.984;18.204;2022-07-06T10:22:55;2.30;;;1.30;;
57309;SDS011;43153;50.984;18.204;2022-07-06T10:25:43;27.10;;;4.30;;
57309;SDS011;43153;50.984;18.204;2022-07-06T10:28:30;27.70;;;3.30;;
57309;SDS011;43153;50.984;18.204;2022-07-06T10:31:14;12.20;;;2.30;;
57309;SDS011;43153;50.984;18.204;2022-07-06T10:34:00;18.50;;;3.10;;
57309;SDS011;43153;50.984;18.204;2022-07-06T10:36:52;35.10;;;5.40;;
57309;SDS011;43153;50.984;18.204;2022-07-06T10:39:38;11.90;;;2.40;;
57309;SDS011;43153;50.984;18.204;2022-07-06T10:42:42;5.50;;;2.40;;
57309;SDS011;43153;50.984;18.204;2022-07-06T10:50:56;6.60;;;2.50;;
57309;SDS011;43153;50.984;18.204;2022-07-06T10:53:45;10.50;;;3.40;;
57309;SDS011;43153;50.984;18.204;2022-07-06T10:56:33;5.20;;;2.20;;
57309;SDS011;43153;50.984;18.204;2022-07-06T10:59:21;5.50;;;2.40;;
57309;SDS011;43153;50.984;18.204;2022-07-06T11:02:15;8.10;;;2.70;;
57309;SDS011;43153;50.984;18.204;2022-07-06T11:05:00;9.60;;;2.10;;
57309;SDS011;43153;50.984;18.204;2022-07-06T11:07:49;7.90;;;2.20;;
57309;SDS011;43153;50.984;18.204;2022-07-06T11:10:55;5.70;;;2.10;;
57309;SDS011;43153;50.984;18.204;2022-07-06T11:13:44;4.40;;;1.80;;
57309;SDS011;43153;50.984;18.204;2022-07-06T11:16:32;9.40;;;2.10;;
57309;SDS011;43153;50.984;18.204;2022-07-06T11:19:21;7.40;;;3.00;;
57309;SDS011;43153;50.984;18.204;2022-07-06T11:22:08;7.20;;;2.60;;
57309;SDS011;43153;50.984;18.204;2022-07-06T11:24:53;6.00;;;2.00;;
57309;SDS011;43153;50.984;18.204;2022-07-06T11:27:41;7.50;;;2.20;;
57309;SDS011;43153;50.984;18.204;2022-07-06T11:30:31;10.20;;;3.40;;
57309;SDS011;43153;50.984;18.204;2022-07-06T11:36:31;8.20;;;2.00;;
57309;SDS011;43153;50.984;18.204;2022-07-06T11:39:16;5.50;;;1.40;;
57309;SDS011;43153;50.984;18.204;2022-07-06T11:42:00;7.80;;;1.90;;
57309;SDS011;43153;50.984;18.204;2022-07-06T11:44:47;4.60;;;1.40;;
57309;SDS011;43153;50.984;18.204;2022-07-06T11:47:34;8.40;;;1.90;;
57309;SDS011;43153;50.984;18.204;2022-07-06T11:50:19;9.50;;;1.60;;
57309;SDS011;43153;50.984;18.204;2022-07-06T11:53:04;12.80;;;2.70;;
57309;SDS011;43153;50.984;18.204;2022-07-06T11:55:48;17.30;;;1.80;;
57309;SDS011;43153;50.984;18.204;2022-07-06T11:58:32;7.00;;;1.20;;
57309;SDS011;43153;50.984;18.204;2022-07-06T12:01:20;6.90;;;1.50;;
57309;SDS011;43153;50.984;18.204;2022-07-06T12:04:07;9.40;;;1.50;;
57309;SDS011;43153;50.984;18.204;2022-07-06T12:06:52;10.00;;;1.60;;
57309;SDS011;43153;50.984;18.204;2022-07-06T12:09:37;7.20;;;1.60;;
57309;SDS011;43153;50.984;18.204;2022-07-06T12:12:22;7.10;;;1.20;;
57309;SDS011;43153;50.984;18.204;2022-07-06T12:15:08;5.90;;;1.40;;
57309;SDS011;43153;50.984;18.204;2022-07-06T12:17:52;6.10;;;1.50;;
57309;SDS011;43153;50.984;18.204;2022-07-06T12:20:36;5.00;;;1.40;;
57309;SDS011;43153;50.984;18.204;2022-07-06T12:23:21;7.40;;;1.60;;
57309;SDS011;43153;50.984;18.204;2022-07-06T12:26:05;7.20;;;0.90;;
57309;SDS011;43153;50.984;18.204;2022-07-06T12:32:03;6.10;;;1.10;;
57309;SDS011;43153;50.984;18.204;2022-07-06T12:35:05;2.60;;;1.00;;
57309;SDS011;43153;50.984;18.204;2022-07-06T12:37:56;4.60;;;0.90;;
57309;SDS011;43153;50.984;18.204;2022-07-06T12:40:44;7.00;;;0.80;;
57309;SDS011;43153;50.984;18.204;2022-07-06T12:43:40;5.40;;;1.00;;
57309;SDS011;43153;50.984;18.204;2022-07-06T12:46:38;8.50;;;1.20;;
57309;SDS011;43153;50.984;18.204;2022-07-06T12:49:23;5.30;;;0.90;;
57309;SDS011;43153;50.984;18.204;2022-07-06T12:52:15;7.70;;;1.40;;
57309;SDS011;43153;50.984;18.204;2022-07-06T12:55:00;5.50;;;1.60;;
57309;SDS011;43153;50.984;18.204;2022-07-06T12:57:45;10.60;;;2.20;;
57309;SDS011;43153;50.984;18.204;2022-07-06T13:00:33;9.10;;;2.30;;
57309;SDS011;43153;50.984;18.204;2022-07-06T13:03:37;8.80;;;3.50;;
57309;SDS011;43153;50.984;18.204;2022-07-06T13:06:29;6.10;;;2.20;;
57309;SDS011;43153;50.984;18.204;2022-07-06T13:09:14;9.10;;;3.30;;
57309;SDS011;43153;50.984;18.204;2022-07-06T13:12:00;6.80;;;3.00;;
57309;SDS011;43153;50.984;18.204;2022-07-06T13:14:45;11.90;;;4.00;;
57309;SDS011;43153;50.984;18.204;2022-07-06T13:17:29;10.90;;;4.10;;
57309;SDS011;43153;50.984;18.204;2022-07-06T13:20:13;10.10;;;4.60;;
57309;SDS011;43153;50.984;18.204;2022-07-06T13:22:57;10.40;;;4.50;;
57309;SDS011;43153;50.984;18.204;2022-07-06T13:25:41;9.60;;;4.90;;
57309;SDS011;43153;50.984;18.204;2022-07-06T13:28:26;7.30;;;3.50;;
57309;SDS011;43153;50.984;18.204;2022-07-06T13:31:10;8.20;;;4.80;;
57309;SDS011;43153;50.984;18.204;2022-07-06T13:33:55;8.20;;;3.90;;
57309;SDS011;43153;50.984;18.204;2022-07-06T13:36:39;7.80;;;4.20;;
57309;SDS011;43153;50.984;18.204;2022-07-06T13:39:24;4.50;;;1.80;;
57309;SDS011;43153;50.984;18.204;2022-07-06T13:42:11;8.70;;;2.70;;
57309;SDS011;43153;50.984;18.204;2022-07-06T13:44:55;2.90;;;1.50;;
57309;SDS011;43153;50.984;18.204;2022-07-06T13:47:39;5.00;;;1.50;;
57309;SDS011;43153;50.984;18.204;2022-07-06T13:50:23;4.80;;;1.70;;
57309;SDS011;43153;50.984;18.204;2022-07-06T13:53:09;2.90;;;1.30;;
57309;SDS011;43153;50.984;18.204;2022-07-06T13:55:53;1.70;;;1.00;;
57309;SDS011;43153;50.984;18.204;2022-07-06T13:58:37;3.50;;;0.90;;
57309;SDS011;43153;50.984;18.204;2022-07-06T14:01:22;1.40;;;0.70;;
57309;SDS011;43153;50.984;18.204;2022-07-06T14:04:07;3.10;;;0.80;;
57309;SDS011;43153;50.984;18.204;2022-07-06T14:06:51;5.40;;;1.10;;
57309;SDS011;43153;50.984;18.204;2022-07-06T14:09:36;2.40;;;0.80;;
57309;SDS011;43153;50.984;18.204;2022-07-06T14:12:24;2.60;;;0.70;;
57309;SDS011;43153;50.984;18.204;2022-07-06T14:15:09;2.30;;;0.90;;
57309;SDS011;43153;50.984;18.204;2022-07-06T14:17:55;1.50;;;0.70;;
57309;SDS011;43153;50.984;18.204;2022-07-06T14:20:39;2.20;;;0.90;;
57309;SDS011;43153;50.984;18.204;2022-07-06T14:23:23;1.80;;;0.90;;
57309;SDS011;43153;50.984;18.204;2022-07-06T14:26:07;1.40;;;0.70;;
57309;SDS011;43153;50.984;18.204;2022-07-06T14:28:53;5.70;;;1.00;;
57309;SDS011;43153;50.984;18.204;2022-07-06T14:31:38;2.40;;;0.80;;
57309;SDS011;43153;50.984;18.204;2022-07-06T14:34:23;3.60;;;0.80;;
57309;SDS011;43153;50.984;18.204;2022-07-06T14:37:08;4.00;;;0.90;;
57309;SDS011;43153;50.984;18.204;2022-07-06T14:39:52;5.20;;;0.90;;
57309;SDS011;43153;50.984;18.204;2022-07-06T14:42:36;7.20;;;0.80;;
57309;SDS011;43153;50.984;18.204;2022-07-06T14:45:20;4.50;;;0.70;;
57309;SDS011;43153;50.984;18.204;2022-07-06T14:48:05;3.50;;;0.80;;
57309;SDS011;43153;50.984;18.204;2022-07-06T14:50:49;5.50;;;0.70;;
57309;SDS011;43153;50.984;18.204;2022-07-06T14:53:34;3.70;;;0.80;;
57309;SDS011;43153;50.984;18.204;2022-07-06T14:56:19;4.60;;;0.70;;
57309;SDS011;43153;50.984;18.204;2022-07-06T14:59:03;7.20;;;1.00;;
57309;SDS011;43153;50.984;18.204;2022-07-06T15:01:47;2.70;;;1.00;;
57309;SDS011;43153;50.984;18.204;2022-07-06T15:04:32;3.60;;;0.80;;
57309;SDS011;43153;50.984;18.204;2022-07-06T15:07:17;3.10;;;0.80;;
57309;SDS011;43153;50.984;18.204;2022-07-06T15:10:02;3.10;;;0.60;;
57309;SDS011;43153;50.984;18.204;2022-07-06T15:12:47;2.40;;;0.80;;
57309;SDS011;43153;50.984;18.204;2022-07-06T15:15:31;4.00;;;0.80;;
57309;SDS011;43153;50.984;18.204;2022-07-06T15:18:16;4.50;;;0.70;;
57309;SDS011;43153;50.984;18.204;2022-07-06T15:21:02;2.90;;;0.80;;
57309;SDS011;43153;50.984;18.204;2022-07-06T15:23:49;1.40;;;0.60;;
57309;SDS011;43153;50.984;18.204;2022-07-06T15:26:33;1.70;;;0.60;;
57309;SDS011;43153;50.984;18.204;2022-07-06T15:29:17;2.00;;;0.70;;
57309;SDS011;43153;50.984;18.204;2022-07-06T15:32:02;3.60;;;0.80;;
57309;SDS011;43153;50.984;18.204;2022-07-06T15:34:47;5.30;;;0.80;;
57309;SDS011;43153;50.984;18.204;2022-07-06T15:37:34;3.30;;;0.80;;
57309;SDS011;43153;50.984;18.204;2022-07-06T15:40:22;4.20;;;0.80;;
57309;SDS011;43153;50.984;18.204;2022-07-06T15:43:11;3.40;;;0.90;;
57309;SDS011;43153;50.984;18.204;2022-07-06T15:45:57;2.70;;;0.70;;
57309;SDS011;43153;50.984;18.204;2022-07-06T15:48:42;6.60;;;0.90;;
57309;SDS011;43153;50.984;18.204;2022-07-06T15:51:26;3.10;;;1.20;;
57309;SDS011;43153;50.984;18.204;2022-07-06T15:54:11;3.60;;;0.70;;
57309;SDS011;43153;50.984;18.204;2022-07-06T15:56:56;2.70;;;0.60;;
57309;SDS011;43153;50.984;18.204;2022-07-06T15:59:40;2.90;;;1.00;;
57309;SDS011;43153;50.984;18.204;2022-07-06T16:02:25;3.50;;;0.80;;
57309;SDS011;43153;50.984;18.204;2022-07-06T16:05:10;2.60;;;0.80;;
57309;SDS011;43153;50.984;18.204;2022-07-06T16:07:54;4.50;;;0.90;;
57309;SDS011;43153;50.984;18.204;2022-07-06T16:10:39;4.20;;;0.60;;
57309;SDS011;43153;50.984;18.204;2022-07-06T16:13:23;3.60;;;0.60;;
57309;SDS011;43153;50.984;18.204;2022-07-06T16:16:08;3.10;;;0.60;;
57309;SDS011;43153;50.984;18.204;2022-07-06T16:18:53;2.10;;;0.70;;
57309;SDS011;43153;50.984;18.204;2022-07-06T16:21:38;2.90;;;0.60;;
57309;SDS011;43153;50.984;18.204;2022-07-06T16:24:24;5.10;;;0.90;;
57309;SDS011;43153;50.984;18.204;2022-07-06T16:27:09;3.50;;;0.80;;